Terminal Aerodrome Forecast
Issued by NWS Quad Cities IA IL

Home | Current Version | Previous Version | Text Only | Print | Product List | Glossary On
Versions: 1 2 3 4 5 6 7 8 9 10 11 12 13 14 15 16
655
FTUS43 KDVN 100409 AAA
TAFMLI
TAF AMD
KMLI 100409Z 1004/1024 30010KT P6SM SKC
     FM102200 32007KT P6SM BKN100=

USA.gov is the U.S. government's official web portal to all federal, state and local government web resources and services.